Time;durP1;ratioP1;P1;durP2;ratioP2;P2;SDS_P1;SDS_P2;PMS_P1;PMS_P2;Temp;Humidity;BMP_temperature;BMP_pressure;BME280_temperature;BME280_humidity;BME280_pressure;Samples;Min_cycle;Max_cycle;Signal;HPM_P1;HPM_P2
2023/05/13 00:02:15;;;;;;;0.10;0.10;;;;;;;20.28;42.47;102197.81;5069562;28;20051;-68
2023/05/13 00:04:41;;;;;;;0.20;0.20;;;;;;;19.40;44.92;102189.81;5069973;28;20040;-68
2023/05/13 00:07:06;;;;;;;0.10;0.10;;;;;;;19.46;45.28;102197.00;5065996;28;20037;-68
2023/05/13 00:09:31;;;;;;;0.10;0.10;;;;;;;19.95;43.55;102187.84;5067656;28;20021;-71
2023/05/13 00:11:57;;;;;;;0.17;0.17;;;;;;;19.58;44.00;102184.09;5071492;28;20025;-70
2023/05/13 00:14:22;;;;;;;0.10;0.10;;;;;;;20.21;43.13;102185.44;5070316;28;20376;-67
2023/05/13 00:16:48;;;;;;;0.20;0.20;;;;;;;20.30;42.49;102198.41;5070704;28;20024;-69
2023/05/13 00:19:13;;;;;;;0.20;0.20;;;;;;;20.12;42.98;102179.59;5070681;28;20035;-69
2023/05/13 00:21:40;;;;;;;0.10;0.10;;;;;;;20.05;43.58;102184.41;5070597;28;20039;-69
2023/05/13 00:24:05;;;;;;;0.17;0.17;;;;;;;19.81;43.77;102185.78;5062623;28;20476;-68
2023/05/13 00:26:31;;;;;;;0.13;0.13;;;;;;;20.04;43.28;102191.78;5057918;28;20110;-67
2023/05/13 00:28:56;;;;;;;0.13;0.13;;;;;;;19.62;44.51;102182.50;5062757;28;20381;-67
2023/05/13 00:31:21;;;;;;;0.10;0.10;;;;;;;20.29;42.99;102184.97;5065549;28;20036;-68
2023/05/13 00:33:47;;;;;;;0.20;0.20;;;;;;;19.78;44.14;102178.91;5057630;28;20020;-68
2023/05/13 00:36:12;;;;;;;0.10;0.10;;;;;;;20.35;42.78;102175.75;5070657;28;20020;-68
2023/05/13 00:38:37;;;;;;;0.10;0.10;;;;;;;20.21;42.75;102178.06;5066849;28;20029;-68
2023/05/13 00:41:04;;;;;;;0.10;0.10;;;;;;;20.14;43.12;102170.06;5070979;28;20028;-68
2023/05/13 00:43:29;;;;;;;0.10;0.10;;;;;;;20.22;42.73;102178.91;5083048;28;20488;-68
2023/05/13 00:45:57;;;;;;;0.20;0.20;;;;;;;19.47;44.79;102181.47;5082246;28;20123;-67
2023/05/13 00:48:23;;;;;;;0.10;0.10;;;;;;;19.68;44.57;102178.78;5071058;28;20039;-67
2023/05/13 00:50:48;;;;;;;0.10;0.10;;;;;;;19.81;43.89;102175.66;5071117;28;20041;-67
2023/05/13 00:53:15;;;;;;;0.10;0.10;;;;;;;20.09;43.57;102180.91;5071013;28;20025;-69
2023/05/13 00:55:42;;;;;;;0.10;0.10;;;;;;;19.82;43.79;102177.31;5071258;28;20364;-68
2023/05/13 00:58:08;;;;;;;0.10;0.10;;;;;;;20.28;43.14;102183.34;5070264;28;20033;-70
2023/05/13 01:00:37;;;;;;;0.20;0.20;;;;;;;20.52;42.86;102180.03;5070772;28;20024;-69
2023/05/13 01:03:11;;;;;;;0.10;0.10;;;;;;;20.21;43.46;102190.88;5049064;28;20024;-68
2023/05/13 01:06:13;;;;;;;0.20;0.20;;;;;;;19.77;43.87;102179.97;5071102;28;20031;-69
2023/05/13 01:09:03;;;;;;;0.15;0.15;;;;;;;19.86;44.27;102183.09;5051113;28;20509;-68
2023/05/13 01:11:36;;;;;;;0.10;0.10;;;;;;;19.83;44.16;102183.59;5050725;28;20033;-69
2023/05/13 01:14:08;;;;;;;0.20;0.20;;;;;;;19.83;44.05;102176.22;5058394;28;20127;-69
2023/05/13 01:16:40;;;;;;;0.10;0.10;;;;;;;19.71;44.71;102183.75;5067311;28;20603;-68
2023/05/13 01:19:20;;;;;;;0.20;0.20;;;;;;;19.46;45.08;102180.66;5067532;28;20029;-69
2023/05/13 01:21:52;;;;;;;0.10;0.10;;;;;;;19.66;45.03;102172.75;5071141;28;20036;-67
2023/05/13 01:24:17;;;;;;;0.20;0.20;;;;;;;19.07;46.83;102176.22;5071597;28;20107;-68
2023/05/13 01:26:43;;;;;;;0.20;0.20;;;;;;;19.52;45.28;102182.38;5070479;28;20044;-69
2023/05/13 01:29:08;;;;;;;0.20;0.20;;;;;;;19.44;45.62;102180.06;5053253;28;20063;-68
2023/05/13 01:31:34;;;;;;;0.20;0.20;;;;;;;19.39;45.96;102181.91;5071084;28;20037;-69
2023/05/13 01:34:01;;;;;;;0.20;0.20;;;;;;;18.94;47.04;102182.00;5070927;28;20086;-69
2023/05/13 01:36:27;;;;;;;0.10;0.10;;;;;;;19.48;46.11;102181.22;5072373;28;20052;-68
2023/05/13 01:38:55;;;;;;;0.20;0.20;;;;;;;18.80;47.81;102183.41;5074576;28;20082;-67
2023/05/13 01:41:20;;;;;;;0.10;0.10;;;;;;;19.17;47.41;102187.28;5074266;28;20036;-67
2023/05/13 01:43:46;;;;;;;0.20;0.20;;;;;;;18.55;48.79;102188.41;5074067;28;20029;-68
2023/05/13 01:46:12;;;;;;;0.10;0.10;;;;;;;18.45;49.31;102183.63;5074236;28;20039;-68
2023/05/13 01:48:37;;;;;;;0.17;0.17;;;;;;;19.12;46.97;102179.84;5056291;28;20035;-67
2023/05/13 01:51:03;;;;;;;0.20;0.20;;;;;;;19.00;47.65;102186.47;5074684;28;20016;-68
2023/05/13 01:53:29;;;;;;;0.10;0.10;;;;;;;19.15;47.40;102184.81;5056207;28;20496;-68
2023/05/13 01:55:54;;;;;;;0.10;0.10;;;;;;;18.91;47.60;102186.03;5074334;28;20032;-68
2023/05/13 01:58:20;;;;;;;0.10;0.10;;;;;;;18.70;49.00;102186.78;5074241;28;20496;-69
2023/05/13 02:00:45;;;;;;;0.13;0.13;;;;;;;18.81;48.19;102190.50;5074107;28;20028;-68
2023/05/13 02:03:11;;;;;;;0.10;0.10;;;;;;;18.66;49.16;102182.91;5073943;28;20031;-67
2023/05/13 02:05:36;;;;;;;0.10;0.10;;;;;;;18.90;48.30;102178.97;5073979;28;20140;-67
2023/05/13 02:08:01;;;;;;;0.20;0.20;;;;;;;18.95;48.02;102183.66;5074148;28;20044;-69
2023/05/13 02:10:27;;;;;;;0.10;0.10;;;;;;;18.20;50.19;102185.84;5055492;28;20396;-68
2023/05/13 02:12:52;;;;;;;0.10;0.10;;;;;;;18.32;50.00;102187.41;5055386;28;20093;-68
2023/05/13 02:15:17;;;;;;;0.20;0.20;;;;;;;18.67;49.03;102181.81;5074102;28;20032;-68
2023/05/13 02:17:43;;;;;;;0.10;0.10;;;;;;;18.71;48.81;102180.25;5073826;28;20028;-68
2023/05/13 02:20:09;;;;;;;0.20;0.20;;;;;;;18.32;50.21;102181.97;5073635;28;20033;-68
2023/05/13 02:22:35;;;;;;;0.17;0.17;;;;;;;19.00;48.77;102186.47;5073771;28;20412;-68
2023/05/13 02:25:01;;;;;;;0.10;0.10;;;;;;;19.17;48.51;102182.66;5073665;28;20032;-67
2023/05/13 02:27:26;;;;;;;0.20;0.20;;;;;;;18.99;48.50;102180.19;5074053;28;20035;-68
2023/05/13 02:29:52;;;;;;;0.10;0.10;;;;;;;18.39;50.30;102185.41;5055547;28;20040;-67
2023/05/13 02:32:17;;;;;;;0.10;0.10;;;;;;;19.17;47.95;102185.38;5073609;28;20033;-68
2023/05/13 02:34:42;;;;;;;0.20;0.20;;;;;;;19.16;48.18;102181.00;5073627;28;20381;-69
2023/05/13 02:37:08;;;;;;;0.10;0.10;;;;;;;18.39;50.45;102182.66;5073330;28;20025;-68
2023/05/13 02:39:33;;;;;;;0.10;0.10;;;;;;;18.93;48.82;102188.50;5073468;28;20043;-68
2023/05/13 02:41:59;;;;;;;0.10;0.10;;;;;;;18.79;49.45;102179.84;5073662;28;20106;-68
2023/05/13 02:44:24;;;;;;;0.20;0.20;;;;;;;18.88;49.03;102181.09;5073249;28;20036;-68
2023/05/13 02:46:50;;;;;;;0.10;0.10;;;;;;;18.47;49.91;102178.75;5072989;28;20453;-67
2023/05/13 02:49:15;;;;;;;0.10;0.10;;;;;;;18.19;50.76;102179.56;5072711;28;20032;-68
2023/05/13 02:51:40;;;;;;;0.17;0.17;;;;;;;18.20;50.88;102183.13;5073068;28;20040;-68
2023/05/13 02:54:06;;;;;;;0.10;0.10;;;;;;;19.07;48.96;102179.78;5073455;28;20024;-69
2023/05/13 02:56:31;;;;;;;0.10;0.10;;;;;;;18.69;49.63;102182.38;5072570;28;20663;-68
2023/05/13 02:58:57;;;;;;;0.22;0.22;;;;;;;18.48;51.11;102182.28;5072741;28;20040;-68
2023/05/13 03:01:22;;;;;;;0.20;0.20;;;;;;;18.59;50.58;102181.41;5072952;28;20036;-69
2023/05/13 03:03:47;;;;;;;0.15;0.15;;;;;;;18.20;51.20;102175.75;5072958;28;20625;-67
2023/05/13 03:06:13;;;;;;;0.30;0.30;;;;;;;18.52;50.63;102176.09;5073478;28;20028;-68
2023/05/13 03:08:38;;;;;;;0.20;0.20;;;;;;;18.82;49.86;102170.38;5072631;28;20036;-69
2023/05/13 03:11:04;;;;;;;0.10;0.10;;;;;;;18.39;50.72;102166.34;5072726;28;20390;-68
2023/05/13 03:13:29;;;;;;;0.25;0.25;;;;;;;17.74;52.49;102183.25;5072698;28;20032;-67
2023/05/13 03:15:54;;;;;;;0.10;0.10;;;;;;;17.63;53.48;102182.19;5053839;28;20029;-68
2023/05/13 03:18:20;;;;;;;0.20;0.20;;;;;;;17.61;53.30;102178.06;5073140;28;20032;-68
2023/05/13 03:20:45;;;;;;;0.10;0.10;;;;;;;17.82;52.92;102177.44;5072520;28;20665;-68
2023/05/13 03:23:11;;;;;;;0.20;0.20;;;;;;;18.34;51.78;102174.41;5072386;28;20098;-69
2023/05/13 03:25:36;;;;;;;0.20;0.20;;;;;;;17.60;53.86;102176.41;5072094;28;20520;-68
2023/05/13 03:28:02;;;;;;;0.20;0.20;;;;;;;18.31;51.39;102180.34;5053642;28;20033;-70
2023/05/13 03:30:28;;;;;;;0.20;0.20;;;;;;;17.57;53.27;102180.44;5072828;28;20447;-68
2023/05/13 03:32:53;;;;;;;0.30;0.30;;;;;;;18.14;51.80;102176.72;5072014;28;20086;-70
2023/05/13 03:35:18;;;;;;;0.20;0.20;;;;;;;18.04;52.83;102186.59;5072537;28;20029;-68
2023/05/13 03:37:44;;;;;;;0.20;0.20;;;;;;;17.91;52.63;102181.41;5054218;28;20039;-68
2023/05/13 03:40:09;;;;;;;0.20;0.20;;;;;;;17.37;53.88;102182.69;5072245;28;20024;-67
2023/05/13 03:42:35;;;;;;;0.17;0.17;;;;;;;18.16;52.82;102179.22;5071994;28;20054;-67
2023/05/13 03:45:00;;;;;;;0.22;0.22;;;;;;;18.15;52.57;102177.56;5071926;28;20469;-69
2023/05/13 03:47:26;;;;;;;0.20;0.20;;;;;;;18.65;51.10;102180.44;5072077;28;20039;-68
2023/05/13 03:49:51;;;;;;;0.10;0.10;;;;;;;18.21;51.96;102187.47;5071827;28;20040;-69
2023/05/13 03:52:16;;;;;;;0.30;0.30;;;;;;;18.38;51.91;102191.06;5071874;28;20079;-68
2023/05/13 03:54:42;;;;;;;1.08;0.20;;;;;;;17.03;55.07;102191.63;5071926;28;20460;-69
2023/05/13 03:57:07;;;;;;;0.20;0.20;;;;;;;16.85;56.64;102194.44;5053800;28;20472;-68
2023/05/13 03:59:33;;;;;;;0.10;0.10;;;;;;;16.89;56.72;102192.91;5071928;28;20190;-69
2023/05/13 04:01:58;;;;;;;0.10;0.10;;;;;;;17.68;53.97;102193.19;5070027;28;20558;-69
2023/05/13 04:04:24;;;;;;;0.10;0.10;;;;;;;17.51;54.56;102192.28;5071341;28;20032;-68
2023/05/13 04:06:49;;;;;;;0.20;0.20;;;;;;;17.83;54.03;102193.50;5071068;28;20408;-68
2023/05/13 04:09:15;;;;;;;0.20;0.20;;;;;;;17.98;53.51;102196.56;5071642;28;20024;-68
2023/05/13 04:11:40;;;;;;;0.20;0.20;;;;;;;18.54;51.82;102197.63;5070964;28;20056;-69
2023/05/13 04:14:05;;;;;;;0.20;0.20;;;;;;;18.24;52.46;102197.84;5071206;28;20028;-68
2023/05/13 04:16:31;;;;;;;0.20;0.20;;;;;;;16.94;56.61;102198.50;5071548;28;20032;-68
2023/05/13 04:18:56;;;;;;;0.30;0.30;;;;;;;17.55;54.52;102205.13;5071314;28;20028;-67
2023/05/13 04:21:21;;;;;;;0.20;0.20;;;;;;;17.49;55.70;102202.56;5072058;28;20032;-67
2023/05/13 04:23:47;;;;;;;0.17;0.17;;;;;;;18.17;52.64;102208.91;5053563;28;20044;-68
2023/05/13 04:26:12;;;;;;;0.20;0.20;;;;;;;17.70;54.10;102214.69;5071707;28;20321;-69
2023/05/13 04:28:37;;;;;;;0.10;0.10;;;;;;;18.00;53.30;102215.34;5071403;28;20076;-68
2023/05/13 04:31:03;;;;;;;0.10;0.10;;;;;;;18.21;52.96;102218.25;5070843;28;20492;-68
2023/05/13 04:33:28;;;;;;;0.20;0.20;;;;;;;18.04;53.24;102219.25;5071779;28;20078;-68
2023/05/13 04:35:53;;;;;;;0.20;0.20;;;;;;;17.10;56.41;102216.81;5070946;28;20688;-69
2023/05/13 04:38:19;;;;;;;0.20;0.20;;;;;;;17.93;54.23;102222.81;5070449;28;20054;-68
2023/05/13 04:40:46;;;;;;;0.20;0.20;;;;;;;17.19;56.16;102227.09;5070589;28;20036;-66
2023/05/13 04:43:11;;;;;;;0.20;0.20;;;;;;;17.33;55.38;102225.81;5059856;28;20165;-69
2023/05/13 04:45:37;;;;;;;0.20;0.20;;;;;;;17.93;54.00;102230.97;5044198;28;20165;-68
2023/05/13 04:48:03;;;;;;;0.20;0.20;;;;;;;18.58;52.04;102235.03;5031093;28;20044;-70
2023/05/13 04:50:28;;;;;;;0.20;0.20;;;;;;;17.36;55.75;102232.63;5031029;28;20037;-69
2023/05/13 04:52:55;;;;;;;0.10;0.10;;;;;;;17.93;54.50;102237.22;5048561;28;20033;-69
2023/05/13 04:55:20;;;;;;;0.20;0.20;;;;;;;18.66;52.85;102233.81;5050756;28;20516;-68
2023/05/13 04:57:46;;;;;;;0.20;0.20;;;;;;;18.67;52.19;102232.75;5050591;28;20098;-67
2023/05/13 05:00:12;;;;;;;0.20;0.20;;;;;;;17.89;55.05;102238.78;5050883;28;20024;-69
2023/05/13 05:02:37;;;;;;;0.20;0.20;;;;;;;17.69;55.70;102246.47;5032115;28;20492;-68
2023/05/13 05:05:03;;;;;;;0.10;0.10;;;;;;;17.28;56.84;102241.13;5050833;28;20463;-68
2023/05/13 05:07:28;;;;;;;0.20;0.20;;;;;;;17.47;56.52;102257.09;5050926;28;20032;-69
2023/05/13 05:09:53;;;;;;;0.22;0.22;;;;;;;17.39;56.75;102254.72;5051061;28;20032;-68
2023/05/13 05:12:19;;;;;;;0.20;0.20;;;;;;;17.69;55.49;102254.63;5054218;28;20023;-68
2023/05/13 05:14:44;;;;;;;0.20;0.20;;;;;;;17.57;55.86;102258.44;5055043;28;20033;-69
2023/05/13 05:17:10;;;;;;;0.10;0.10;;;;;;;16.47;59.20;102265.34;5054530;28;20033;-67
2023/05/13 05:19:35;;;;;;;0.20;0.20;;;;;;;17.45;57.22;102255.69;5054847;28;20033;-68
2023/05/13 05:22:00;;;;;;;0.10;0.10;;;;;;;17.20;58.65;102260.50;5055186;28;20440;-68
2023/05/13 05:24:26;;;;;;;0.20;0.20;;;;;;;17.78;56.50;102269.53;5055484;28;20029;-69
2023/05/13 05:26:51;;;;;;;0.30;0.30;;;;;;;16.76;60.04;102252.84;5067743;28;20488;-68
2023/05/13 05:29:17;;;;;;;0.20;0.20;;;;;;;16.96;58.83;102256.91;5074604;28;20166;-68
2023/05/13 05:31:43;;;;;;;0.20;0.20;;;;;;;17.69;57.27;102260.06;5074502;28;20460;-68
2023/05/13 05:34:08;;;;;;;0.25;0.25;;;;;;;17.29;58.04;102268.09;5074660;28;20090;-67
2023/05/13 05:36:33;;;;;;;0.10;0.10;;;;;;;17.44;58.17;102267.63;5075036;28;20017;-69
2023/05/13 05:38:59;;;;;;;0.20;0.20;;;;;;;17.89;56.51;102257.81;5074933;28;20036;-67
2023/05/13 05:41:24;;;;;;;0.30;0.30;;;;;;;17.93;56.44;102263.59;5068621;28;20029;-69
2023/05/13 05:43:50;;;;;;;0.20;0.20;;;;;;;17.53;57.28;102258.91;5067961;28;20530;-68
2023/05/13 05:46:15;;;;;;;0.10;0.10;;;;;;;17.44;58.29;102251.31;5062037;28;20048;-67
2023/05/13 05:48:41;;;;;;;0.13;0.13;;;;;;;17.01;60.31;102262.50;5053555;28;20047;-67
2023/05/13 05:51:06;;;;;;;0.10;0.10;;;;;;;16.89;60.39;102258.91;5054835;28;20370;-67
2023/05/13 05:53:33;;;;;;;0.10;0.10;;;;;;;17.51;58.31;102262.94;5054025;28;20033;-67
2023/05/13 05:55:59;;;;;;;0.20;0.20;;;;;;;18.03;57.75;102270.09;5054234;28;20045;-68
2023/05/13 05:58:25;;;;;;;0.30;0.30;;;;;;;17.97;57.53;102268.34;5054029;28;20455;-68
2023/05/13 06:00:53;;;;;;;0.20;0.20;;;;;;;18.74;55.03;102261.47;5053723;28;20546;-66
2023/05/13 06:03:18;;;;;;;0.10;0.10;;;;;;;18.24;56.90;102269.44;5054380;28;20104;-67
2023/05/13 06:05:44;;;;;;;0.20;0.20;;;;;;;18.84;54.75;102269.00;5054166;28;20036;-68
2023/05/13 06:08:09;;;;;;;0.13;0.13;;;;;;;18.45;55.89;102270.72;5054181;28;20102;-67
2023/05/13 06:10:35;;;;;;;0.20;0.20;;;;;;;18.59;56.19;102274.81;5053907;28;20029;-69
2023/05/13 06:13:00;;;;;;;0.20;0.20;;;;;;;18.82;55.21;102261.06;5053923;28;20086;-67
2023/05/13 06:15:25;;;;;;;0.10;0.10;;;;;;;19.09;54.59;102264.00;5054264;28;20020;-67
2023/05/13 06:17:51;;;;;;;0.20;0.20;;;;;;;19.42;53.21;102269.47;5061047;28;20036;-68
2023/05/13 06:20:16;;;;;;;0.17;0.17;;;;;;;19.22;53.20;102269.13;5073809;28;20033;-66
2023/05/13 06:22:41;;;;;;;0.22;0.20;;;;;;;19.62;52.20;102266.22;5072555;28;20039;-68
2023/05/13 06:25:07;;;;;;;0.20;0.20;;;;;;;18.64;55.04;102272.19;5044643;28;20045;-68
2023/05/13 06:27:32;;;;;;;0.20;0.20;;;;;;;19.03;54.71;102259.53;5051948;28;20670;-70
2023/05/13 06:29:59;;;;;;;2.10;0.10;;;;;;;19.78;52.00;102268.94;5052694;28;20029;-68
2023/05/13 06:32:24;;;;;;;0.20;0.20;;;;;;;19.72;52.27;102266.38;5052204;28;20037;-69
2023/05/13 06:34:51;;;;;;;0.20;0.20;;;;;;;19.50;53.13;102270.97;5052950;28;20037;-68
2023/05/13 06:37:16;;;;;;;0.15;0.15;;;;;;;19.59;53.15;102272.19;5053602;28;20493;-68
2023/05/13 06:39:42;;;;;;;0.20;0.20;;;;;;;20.49;50.40;102275.31;5046494;28;20028;-67
2023/05/13 06:42:07;;;;;;;0.20;0.20;;;;;;;20.94;49.29;102270.31;5052218;28;20020;-66
2023/05/13 06:44:32;;;;;;;0.10;0.10;;;;;;;20.59;50.37;102279.00;5069298;28;20041;-67
2023/05/13 06:46:58;;;;;;;0.20;0.20;;;;;;;20.80;50.06;102280.03;5072272;28;20048;-67
2023/05/13 06:49:23;;;;;;;0.20;0.20;;;;;;;21.20;48.74;102272.25;5072521;28;21572;-68
2023/05/13 06:51:49;;;;;;;0.10;0.10;;;;;;;21.17;48.48;102272.75;5072442;28;20020;-66
2023/05/13 06:54:15;;;;;;;0.10;0.10;;;;;;;20.62;49.34;102274.91;5055421;28;20021;-67
2023/05/13 06:56:40;;;;;;;0.20;0.20;;;;;;;21.08;48.58;102276.22;5069810;28;20428;-67
2023/05/13 06:59:06;;;;;;;0.10;0.10;;;;;;;21.23;48.17;102266.22;5069989;28;20132;-66
2023/05/13 07:01:31;;;;;;;0.20;0.20;;;;;;;20.99;49.17;102267.66;5054392;28;20667;-68
2023/05/13 07:03:56;;;;;;;0.20;0.20;;;;;;;20.98;48.92;102269.56;5072513;28;20058;-68
2023/05/13 07:06:22;;;;;;;0.10;0.10;;;;;;;21.27;48.49;102272.81;5070007;28;20393;-67
2023/05/13 07:08:47;;;;;;;0.20;0.20;;;;;;;20.70;50.17;102269.81;5072428;28;20040;-67
2023/05/13 07:11:12;;;;;;;0.20;0.20;;;;;;;21.50;47.54;102268.91;5069397;28;20674;-67
2023/05/13 07:13:38;;;;;;;0.17;0.17;;;;;;;21.66;47.45;102265.19;5069200;28;20043;-68
2023/05/13 07:16:03;;;;;;;0.10;0.10;;;;;;;21.33;47.89;102255.38;5072163;28;20136;-67
2023/05/13 07:18:29;;;;;;;0.10;0.10;;;;;;;21.40;48.33;102263.38;5071124;28;20368;-67
2023/05/13 07:20:57;;;;;;;0.20;0.20;;;;;;;21.85;47.10;102260.94;5063941;28;20028;-68
2023/05/13 07:23:23;;;;;;;0.20;0.20;;;;;;;21.90;47.11;102266.44;5069029;28;20041;-66
2023/05/13 07:25:50;;;;;;;0.17;0.17;;;;;;;22.06;46.29;102265.44;5072156;28;20021;-66
2023/05/13 07:28:19;;;;;;;0.15;0.15;;;;;;;22.32;46.50;102264.44;5072201;28;20581;-68
2023/05/13 07:30:45;;;;;;;0.10;0.10;;;;;;;22.45;45.26;102266.69;5072224;28;20027;-67
2023/05/13 07:33:10;;;;;;;0.10;0.10;;;;;;;22.94;43.82;102267.06;5069457;28;20024;-68
2023/05/13 07:35:36;;;;;;;0.10;0.10;;;;;;;22.68;45.32;102265.41;5068800;28;20029;-67
2023/05/13 07:38:01;;;;;;;0.10;0.10;;;;;;;22.69;44.92;102269.78;5071794;28;20511;-66
2023/05/13 07:40:27;;;;;;;0.13;0.13;;;;;;;21.79;46.51;102267.44;5068599;28;20025;-67
2023/05/13 07:42:52;;;;;;;0.10;0.10;;;;;;;22.92;44.61;102269.25;5071693;28;20051;-67
2023/05/13 07:45:18;;;;;;;0.17;0.17;;;;;;;22.76;44.44;102272.28;5069066;28;20016;-68
2023/05/13 07:47:43;;;;;;;0.10;0.10;;;;;;;23.05;44.25;102270.66;5068725;28;20068;-67
2023/05/13 07:50:09;;;;;;;0.17;0.17;;;;;;;23.26;44.01;102267.63;5053570;28;20086;-67
2023/05/13 07:52:35;;;;;;;0.15;0.15;;;;;;;23.25;43.88;102262.44;5068696;28;20071;-66
2023/05/13 07:55:01;;;;;;;0.10;0.10;;;;;;;23.67;42.50;102268.44;5071499;28;20431;-67
2023/05/13 07:57:26;;;;;;;0.20;0.20;;;;;;;23.62;42.41;102260.22;5068822;28;20032;-67
2023/05/13 07:59:53;;;;;;;0.10;0.10;;;;;;;23.67;42.69;102265.69;5068701;28;20037;-67
2023/05/13 08:02:18;;;;;;;0.10;0.10;;;;;;;23.80;41.48;102262.38;5071529;28;20024;-67
2023/05/13 08:04:44;;;;;;;0.10;0.10;;;;;;;23.65;41.37;102269.81;5068592;28;20036;-67
2023/05/13 08:07:10;;;;;;;0.10;0.10;;;;;;;23.41;42.01;102267.66;5066994;28;20056;-67
2023/05/13 08:09:35;;;;;;;0.10;0.10;;;;;;;23.79;41.92;102262.63;5067426;28;20481;-67
2023/05/13 08:12:00;;;;;;;0.10;0.10;;;;;;;23.43;41.97;102264.63;5071113;28;20037;-70
2023/05/13 08:14:26;;;;;;;0.10;0.10;;;;;;;22.93;42.66;102273.66;5063835;28;20098;-67
2023/05/13 08:16:51;;;;;;;0.10;0.10;;;;;;;23.62;41.56;102271.19;5053765;28;20037;-68
2023/05/13 08:19:18;;;;;;;0.10;0.10;;;;;;;22.82;43.24;102279.41;5069463;28;20025;-68
2023/05/13 08:21:44;;;;;;;0.05;0.05;;;;;;;23.11;42.94;102284.09;5069074;28;20111;-70
2023/05/13 08:24:09;;;;;;;0.10;0.10;;;;;;;23.68;41.11;102272.84;5064838;28;20453;-68
2023/05/13 08:26:36;;;;;;;0.10;0.10;;;;;;;23.28;42.64;102270.09;5070736;28;20043;-70
2023/05/13 08:29:01;;;;;;;0.00;0.00;;;;;;;22.90;42.81;102274.19;5069606;28;20039;-68
2023/05/13 08:31:27;;;;;;;0.10;0.10;;;;;;;22.56;44.30;102278.50;5057019;28;20029;-69
2023/05/13 08:33:52;;;;;;;0.10;0.10;;;;;;;23.83;41.71;102274.72;5070531;28;20074;-67
2023/05/13 08:36:19;;;;;;;0.00;0.00;;;;;;;24.66;39.57;102273.84;5070843;28;20484;-69
2023/05/13 08:38:45;;;;;;;0.10;0.10;;;;;;;24.96;38.31;102270.88;5067043;28;20484;-67
2023/05/13 08:41:14;;;;;;;0.00;0.00;;;;;;;25.14;38.34;102266.63;5070277;28;20028;-69
2023/05/13 08:43:42;;;;;;;0.10;0.10;;;;;;;24.80;38.79;102263.88;5070288;28;20029;-69
2023/05/13 08:46:11;;;;;;;0.10;0.10;;;;;;;24.64;39.51;102262.28;5071345;28;20048;-69
2023/05/13 08:48:40;;;;;;;0.00;0.00;;;;;;;25.17;38.64;102266.88;5053892;28;20040;-67
2023/05/13 08:51:06;;;;;;;0.00;0.00;;;;;;;24.99;37.85;102267.56;5075197;28;20479;-67
2023/05/13 08:53:33;;;;;;;0.00;0.00;;;;;;;25.60;37.73;102272.56;5073762;28;20024;-68
2023/05/13 08:55:59;;;;;;;0.00;0.00;;;;;;;25.86;37.37;102272.00;5074360;28;20496;-68
2023/05/13 08:58:25;;;;;;;0.00;0.00;;;;;;;26.07;37.67;102265.19;5068762;28;20122;-69
2023/05/13 09:00:52;;;;;;;0.00;0.00;;;;;;;24.68;39.16;102271.63;5074082;28;20121;-69
2023/05/13 09:03:18;;;;;;;0.00;0.00;;;;;;;26.50;35.52;102273.41;5064484;28;20016;-68
2023/05/13 09:05:44;;;;;;;0.05;0.05;;;;;;;24.40;38.97;102264.91;5072829;28;20117;-70
2023/05/13 09:08:09;;;;;;;0.05;0.05;;;;;;;25.50;37.81;102264.41;5068404;28;20029;-68
2023/05/13 09:10:36;;;;;;;0.00;0.00;;;;;;;25.60;37.28;102256.03;5072979;28;20050;-68
2023/05/13 09:13:02;;;;;;;0.00;0.00;;;;;;;26.14;37.44;102259.31;5059632;28;20488;-69
2023/05/13 09:15:27;;;;;;;0.00;0.00;;;;;;;26.10;36.64;102261.03;5071414;28;20081;-70
2023/05/13 09:17:58;;;;;;;0.00;0.00;;;;;;;26.79;34.42;102257.59;5049531;28;20029;-70
2023/05/13 09:20:25;;;;;;;0.00;0.00;;;;;;;26.91;35.41;102264.28;5074028;28;20025;-70
2023/05/13 09:22:56;;;;;;;0.00;0.00;;;;;;;26.90;34.20;102251.63;5073548;28;20036;-69
2023/05/13 09:25:24;;;;;;;0.00;0.00;;;;;;;26.54;34.35;102260.69;5070894;28;20031;-69
2023/05/13 09:27:57;;;;;;;0.00;0.00;;;;;;;26.75;34.10;102259.31;5073441;28;20035;-70
2023/05/13 09:30:26;;;;;;;0.00;0.00;;;;;;;26.53;34.82;102254.38;5069620;28;20016;-70
2023/05/13 09:33:08;;;;;;;0.00;0.00;;;;;;;27.17;32.99;102250.06;5067168;28;20522;-70
2023/05/13 09:35:36;;;;;;;0.00;0.00;;;;;;;26.82;33.04;102254.22;5059374;28;20061;-70
2023/05/13 09:38:11;;;;;;;0.10;0.10;;;;;;;26.24;33.51;102261.13;5065535;28;20127;-68
2023/05/13 09:40:37;;;;;;;0.00;0.00;;;;;;;25.70;34.83;102264.19;5071444;28;20024;-68
2023/05/13 09:43:04;;;;;;;0.00;0.00;;;;;;;26.33;33.73;102256.56;5073349;28;20162;-71
2023/05/13 09:45:31;;;;;;;0.00;0.00;;;;;;;27.53;31.01;102251.94;5083535;28;20043;-69
2023/05/13 09:47:57;;;;;;;0.00;0.00;;;;;;;27.28;29.24;102246.81;5050193;28;20036;-69
2023/05/13 09:50:22;;;;;;;0.00;0.00;;;;;;;28.19;30.05;102245.91;5074770;28;20037;-68
2023/05/13 09:52:48;;;;;;;0.00;0.00;;;;;;;27.83;29.83;102246.94;5084804;28;20516;-68
2023/05/13 09:55:13;;;;;;;0.00;0.00;;;;;;;27.68;29.44;102251.63;5079672;28;20024;-69
2023/05/13 09:57:39;;;;;;;0.00;0.00;;;;;;;27.02;31.88;102247.56;5084382;28;20043;-71
2023/05/13 10:00:06;;;;;;;0.00;0.00;;;;;;;26.24;31.99;102255.59;5066891;28;20158;-70
2023/05/13 10:02:32;;;;;;;0.00;0.00;;;;;;;26.68;32.00;102253.31;5047434;28;20037;-70
2023/05/13 10:04:58;;;;;;;0.00;0.00;;;;;;;26.56;31.55;102245.47;5070580;28;20043;-71
2023/05/13 10:07:24;;;;;;;0.00;0.00;;;;;;;27.53;30.04;102243.66;5087573;28;20515;-71
2023/05/13 10:09:57;;;;;;;0.00;0.00;;;;;;;28.45;29.21;102232.34;5087701;28;20034;-70
2023/05/13 10:12:27;;;;;;;0.00;0.00;;;;;;;28.56;28.98;102226.28;5087202;28;20016;-68
2023/05/13 10:14:53;;;;;;;0.00;0.00;;;;;;;29.14;28.21;102225.44;5069148;28;20040;-69
2023/05/13 10:17:23;;;;;;;0.00;0.00;;;;;;;28.73;28.50;102224.81;5073088;28;20450;-70
2023/05/13 10:19:50;;;;;;;0.08;0.00;;;;;;;29.04;27.77;102229.28;5069476;28;20511;-68
2023/05/13 10:22:30;;;;;;;0.00;0.00;;;;;;;28.43;29.16;102229.91;5068872;28;20119;-71
2023/05/13 10:24:57;;;;;;;0.00;0.00;;;;;;;28.51;28.50;102229.16;5073211;28;20468;-68
2023/05/13 10:27:29;;;;;;;0.00;0.00;;;;;;;28.67;28.47;102226.88;5073391;28;20024;-70
2023/05/13 10:29:56;;;;;;;0.00;0.00;;;;;;;28.71;27.07;102225.13;5072976;28;20048;-69
2023/05/13 10:32:25;;;;;;;0.00;0.00;;;;;;;28.93;26.99;102218.78;5071168;28;20516;-69
2023/05/13 10:34:55;;;;;;;0.00;0.00;;;;;;;28.83;26.68;102222.63;5072318;28;20032;-70
2023/05/13 10:37:42;;;;;;;0.00;0.00;;;;;;;29.16;26.35;102218.47;5076053;28;20032;-68
2023/05/13 10:40:16;;;;;;;0.00;0.00;;;;;;;28.18;26.51;102215.81;5063849;28;20037;-69
2023/05/13 10:43:21;;;;;;;0.00;0.00;;;;;;;29.08;25.94;102212.84;5037652;28;20021;-67
2023/05/13 10:45:47;;;;;;;0.00;0.00;;;;;;;28.55;26.61;102216.38;4961365;28;20050;-69
2023/05/13 10:48:14;;;;;;;0.00;0.00;;;;;;;29.04;25.81;102220.16;4960646;28;20031;-69
2023/05/13 10:50:53;;;;;;;0.17;0.00;;;;;;;29.60;24.62;102206.47;4968140;28;20035;-69
2023/05/13 10:53:30;;;;;;;0.00;0.00;;;;;;;30.05;25.39;102207.13;4969103;28;20042;-71
2023/05/13 10:55:58;;;;;;;0.00;0.00;;;;;;;29.95;24.74;102199.94;4959733;28;20062;-70
2023/05/13 10:58:32;;;;;;;0.00;0.00;;;;;;;30.35;24.45;102199.88;4932593;29;20089;-70
2023/05/13 11:01:36;;;;;;;0.00;0.00;;;;;;;30.40;23.38;102203.28;4948420;28;20122;-69
2023/05/13 11:04:04;;;;;;;0.00;0.00;;;;;;;29.98;23.32;102195.69;4953644;28;20122;-67
2023/05/13 11:06:38;;;;;;;0.00;0.00;;;;;;;30.55;23.28;102190.88;4968217;28;20023;-70
2023/05/13 11:09:07;;;;;;;0.00;0.00;;;;;;;30.03;23.18;102199.13;4960998;28;20069;-69
2023/05/13 11:11:34;;;;;;;0.00;0.00;;;;;;;30.15;22.00;102187.41;4962660;28;20034;-68
2023/05/13 11:14:20;;;;;;;0.00;0.00;;;;;;;30.93;23.50;102194.63;4970073;28;20532;-69
2023/05/13 11:16:59;;;;;;;0.00;0.00;;;;;;;29.18;24.16;102191.28;4961766;28;20050;-70
2023/05/13 11:19:26;;;;;;;0.00;0.00;;;;;;;29.77;22.04;102189.94;4952573;28;20880;-70
2023/05/13 11:21:54;;;;;;;0.00;0.00;;;;;;;29.69;22.79;102189.88;4980133;28;20068;-70
2023/05/13 11:24:20;;;;;;;0.00;0.00;;;;;;;30.18;21.91;102179.25;5043612;28;20107;-70